Impacts METAR Board INFO
IDs:

KPDX - Portland Intl Arpt, OR, US

Updated at: 0240 UTC 12 Dec 2017
Potential Impact None Slight Moderate High
Time11/14Z 11/15Z 11/16Z 11/17Z 11/18Z 11/19Z 11/20Z 11/21Z 11/22Z 11/23Z 12/00Z 12/01Z 12/02Z
VIS10 10 10 10 10 10 10 10 10 10 10 10 10
CIG-- -- -- -- -- -- -- -- -- -- -- -- --
CoverCLRCLRCLRCLRCLRCLRCLRFEWFEWFEWFEWFEWFEW
FltCatVFRVFRVFRVFRVFRVFRVFRVFRVFRVFRVFRVFRVFR
WX--------------------------
WDir110801007070110100120130120140120130
WSpd12 9 8 6 7 15 15 15 13 13 9 13 11
WGst-- -- -- -- -- -- -- -- -- -- -- -- --
Raw hourly METARs
KPDX 111353Z 11012KT 10SM CLR 02/M04 A3039 RMK AO2 SLP291 T00221039 $
KPDX 111453Z 08009KT 10SM CLR 01/M04 A3040 RMK AO2 SLP295 T00111039 53004
KPDX 111553Z 10008KT 10SM CLR 01/M04 A3041 RMK AO2 SLP298 T00111039
KPDX 111653Z 07006KT 10SM CLR 03/M03 A3042 RMK AO2 SLP299 T00281033
KPDX 111753Z 07007KT 10SM CLR 05/M03 A3043 RMK AO2 SLP303 T00501033 10050 20000 53007
KPDX 111853Z 11015KT 10SM CLR 06/M03 A3044 RMK AO2 SLP307 T00611033
KPDX 111953Z 10015KT 10SM CLR 07/M03 A3043 RMK AO2 SLP306 T00671033
KPDX 112053Z 12015KT 10SM FEW250 07/M03 A3043 RMK AO2 SLP303 T00671033 50001
KPDX 112153Z 13013KT 10SM FEW250 07/M03 A3043 RMK AO2 SLP303 T00671028
KPDX 112253Z 12013KT 10SM FEW250 06/M03 A3043 RMK AO2 SLP304 T00561028
KPDX 112353Z 14009KT 10SM FEW150 FEW250 04/M03 A3044 RMK AO2 SLP309 T00391033 10067 20039 53006
KPDX 120053Z 12013KT 10SM FEW150 FEW250 03/M03 A3044 RMK AO2 SLP309 T00281033
KPDX 120153Z 13011KT 10SM FEW250 02/M03 A3046 RMK AO2 SLP314 T00221033